Share

Heron Lake, MN

Windom Municipal (KMWM) Elev 1411 ft | 43.91 °N, 95.11 °W | Change Station

Current weather conditions updated 14 minutes ago

Clear
Clear
54 °F
Feels Like 54 °F
N
28
Wind Variable Wind from SSE
Gusts 38 mph
Sunrise 6:31 AM
Sunset 8:09 PM
Moon Waning Gibbous

Today is forecast to be Much Warmer than yesterday.

Pressure 29.99 in
Visibility 10.0 miles
Clouds Clear
Dew Point 39 °F
Humidity 58%
Rainfall 0.00 in
Snow Depth Not available.
UV 2 out of 16
Pollen 11.00 out of 12
Air Quality Not available.
Flu Activity Sporadic
METAR KMWM 191332Z AUTO 15024G33KT 10SM CLR 12/04 A2999 RMK AO2

More Conditions Fewer Conditions

Pressure 29.99 in
Visibility 10.0 miles
Clouds Clear
Dew Point 39 °F
Humidity 58%
Rainfall 0.00 in
Snow Depth Not available.
UV 2 out of 16
Pollen 11.00 out of 12
Air Quality Not available.
Flu Activity Sporadic
METAR KMWM 191332Z AUTO 15024G33KT 10SM CLR 12/04 A2999 RMK AO2

More Conditions Fewer Conditions

10-Day Weather Forecast

Almanac

Astronomy

Apr. 19, 2014 Rise Set
Actual Time 6:31 AM CDT 8:09 PM CDT
Civil Twilight 6:01 AM CDT 8:40 PM CDT
Nautical Twilight 5:24 AM CDT 9:17 PM CDT
Astronomical Twilight 4:45 AM CDT 9:56 PM CDT
Moon No Moon Rise 9:46 AM CDT
Length of Visible Light 14h 38m
Length of Day
13h 38m
Tomorrow will be 2m 50s longer.
Waning Gibbous, 79% of the Moon is Illuminated
Today
Waning Gibbous
Apr 22
Last Quarter
Apr 29
New
May 6
First Quarter
May 14
Full

Today's Extremes

State Highs State Lows

Community

  • A Glorious Morning
    A Glorious Morning
  • Bleeding Hearts
    Bleeding Hearts
  • Sunset Silhouettes
    Sunset Silhouettes
  • FL sunset Perico Isle
    FL sunset Perico Isle
  • Cloudy spring view
    Cloudy spring view

WunderPhotos

Upload Photos

1,702,727 photos uploaded!

Nearby

Snow Depth

Station Depth Elevation
No new snow has been reported.

Coastal Water Temperatures

Place Temperature
No Stations Reporting

Earthquake Activity

City Distance Mag. Time & Date
No recent earthquake activity has been reported nearby.
Minimum magnitude displayed is 2.5.

Nearby Weather Stations

Station Location Temp. Windchill Dew Point Humidity Wind Precip. Elev Updated Type
MesoWest HERONL , Heron Lake, MN 47 °F 47 °F - - North  at  - 0.00 in / hr 1404 ft 7:30 AM CDT MADIS
Sorenson Seed, Storden, MN 52.0 °F - 42 °F 70% SSE  at  18.0 mph 0.00 in / hr 1404 ft 8:45 AM CDT Normal
300th st, Westbrook, MN 52.5 °F - 44 °F 73% South  at  32.7 mph 0.00 in / hr 1430 ft 8:46 AM CDT Rapid Fire
CityViewRanch, Westbrook, MN 50.7 °F - 43 °F 74% SSW  at  24.0 mph 0.00 in / hr 1432 ft 8:34 AM CDT Normal
Kimball Township, Mountain Lake, MN 48.7 °F 45 °F 38 °F 65% SSE  at  8.3 mph - / hr 1352 ft 8:36 AM CDT Normal
MesoWest MTLAKE , Mountain Lake, MN 45 °F 45 °F - - North  at  - 0.00 in / hr 1286 ft 5:50 AM CDT MADIS

Show More Stations Show Fewer Stations

What do you think?

We're not finished. Please let us know what you like, what you don't like, and what you are still missing.